Accueil
METAR-TAF:

METAR-TAF

Aéroports :

Lahr, Allemagne

Aéroport de Lahr

latitude: 48-22-09N, longitude: 007-49-40E, altitude: 156 m

Observation

Le bulletin a été fait il y a 3 heures et 11 minutes, à 17:50 UTC
Vent 3 kt de nord-ouest, variant entre ouest et nord/nord-ouest
Température 20°C
Humidité 53%
Pression 1015 hPa
Visibilité 10 km ou plus
pas de nuages en-dessous de 1500 mètres et pas de cumulonimbus.

METAR: EDTL 241750Z 31003KT 270V330 CAVOK 20/10 Q1015

Heure: 23:01 (21:01 UTC)

Prévision

Le bulletin a été fait il y a 4 heures et 1 minutes, à 17:00 UTC
Prévision valable du 24 à 18 UTC au 24 à 24 UTC
Vent 4 kt de sud
Visibilité 10 km ou plus
pas de nuages en-dessous de 1500 mètres et pas de cumulonimbus.

TAF: EDTL 241700Z 2418/2424 19004KT CAVOK

Observations et prévisions météorologiques de plus de 4000 aéroports (messages METAR et TAF).

Les stations disponibles sont représentées par des disques jaunes et rouges sur la carte.

Passer la souris dessus pour voir le nom de la station.

Cliquer dessus pour voir les observations et prévisions météorologiques.

Pour changer de carte: cliquez sur les boutons verts avec une croix noire pour zoomer, sur le bouton vert avec un tiret pour effectuer un zoom arrière, ou sur les flèches vertes pour les cartes adjacentes.


METAR-TAF: